Patuxent River Naval Air Station,Trapnell Field Aiport Patuxent River US
ICAO: KNHK
IATA: NHK
Category: Medium
Scheduled Services: No

Elevation: 39 ft
TransAlt. 18000 ft.

Airport Communications:
APP/DEP:120.05
ATIS:27.62
CLNC DEL:135.2
GND:120.6
BASE OPS:30.255
PMSV METRO:35.62
LEESBURG RDO:117.6
TWR:123.7

KNHK Zoom In..

Runways:

(A) RW 02 length 5021 ft width 75 ft
---- / hdg 18

(B) RW 06 length 11807 ft width 200 ft
---- / hdg 59

(C) RW 14 length 9742 ft width 200 ft
---- / hdg 136

(D) RW 20 length 5021 ft width 75 ft
---- / hdg 198

(E) RW 24 length 11807 ft width 200 ft
---- / hdg 239

(F) RW 32 length 9742 ft width 200 ft
---- / hdg 316

Location; KNHK
Day. 19 / Time. 20.52 Zulu
* Altimeter: 29.91
* Temperature: 15° c. 59°f.
* Wind from: 310° Speed 23 kn with Gusts up to 31 kn.
Dewpoint: 01° c.
Visibility: 10 Statute Miles.
Clouds: Few 6000 ft.
Clouds: Few 1000 ft.

KNHK 192052Z 31023G31KT 10SM FEW060 FEW100 15/01 A2991 RMK AO2 PK WND 32035/2024 SLP128 60000 T01500006 53026


Wind From 310°
Speed 23 kn.

  YouTube Music Video
 
jpsmedia.com for Web Design  worldairports.se 2018   terms of use